sensor_id;sensor_type;location;lat;lon;timestamp;P1;durP1;ratioP1;P2;durP2;ratioP2
79284;SDS011;68734;50.452;11.636;2023-11-19T00:01:31;4.90;;;3.33;;
79284;SDS011;68734;50.452;11.636;2023-11-19T00:03:57;5.05;;;2.47;;
79284;SDS011;68734;50.452;11.636;2023-11-19T00:08:24;6.10;;;3.45;;
79284;SDS011;68734;50.452;11.636;2023-11-19T00:10:50;11.73;;;5.35;;
79284;SDS011;68734;50.452;11.636;2023-11-19T00:13:16;5.43;;;3.45;;
79284;SDS011;68734;50.452;11.636;2023-11-19T00:15:43;9.38;;;3.53;;
79284;SDS011;68734;50.452;11.636;2023-11-19T00:18:10;2.20;;;1.92;;
79284;SDS011;68734;50.452;11.636;2023-11-19T00:20:35;3.50;;;1.88;;
79284;SDS011;68734;50.452;11.636;2023-11-19T00:23:01;1.77;;;1.30;;
79284;SDS011;68734;50.452;11.636;2023-11-19T00:25:35;2.85;;;1.52;;
79284;SDS011;68734;50.452;11.636;2023-11-19T00:28:04;5.47;;;2.25;;
79284;SDS011;68734;50.452;11.636;2023-11-19T00:31:50;4.47;;;1.98;;
79284;SDS011;68734;50.452;11.636;2023-11-19T00:34:15;2.65;;;1.48;;
79284;SDS011;68734;50.452;11.636;2023-11-19T00:36:40;3.45;;;1.80;;
79284;SDS011;68734;50.452;11.636;2023-11-19T00:39:06;3.13;;;1.35;;
79284;SDS011;68734;50.452;11.636;2023-11-19T00:41:31;2.58;;;1.98;;
79284;SDS011;68734;50.452;11.636;2023-11-19T00:43:59;2.78;;;1.85;;
79284;SDS011;68734;50.452;11.636;2023-11-19T00:46:24;2.97;;;1.88;;
79284;SDS011;68734;50.452;11.636;2023-11-19T00:48:50;3.60;;;2.47;;
79284;SDS011;68734;50.452;11.636;2023-11-19T00:54:03;4.28;;;1.38;;
79284;SDS011;68734;50.452;11.636;2023-11-19T00:56:29;2.67;;;1.88;;
79284;SDS011;68734;50.452;11.636;2023-11-19T00:58:54;3.42;;;1.70;;
79284;SDS011;68734;50.452;11.636;2023-11-19T01:01:20;3.13;;;1.52;;
79284;SDS011;68734;50.452;11.636;2023-11-19T01:03:46;2.58;;;1.08;;
79284;SDS011;68734;50.452;11.636;2023-11-19T01:06:12;2.55;;;1.10;;
79284;SDS011;68734;50.452;11.636;2023-11-19T01:08:39;2.20;;;1.10;;
79284;SDS011;68734;50.452;11.636;2023-11-19T01:11:04;1.88;;;0.95;;
79284;SDS011;68734;50.452;11.636;2023-11-19T01:13:30;2.17;;;0.90;;
79284;SDS011;68734;50.452;11.636;2023-11-19T01:18:16;1.63;;;1.08;;
79284;SDS011;68734;50.452;11.636;2023-11-19T01:20:42;1.30;;;1.00;;
79284;SDS011;68734;50.452;11.636;2023-11-19T01:23:08;1.33;;;0.88;;
79284;SDS011;68734;50.452;11.636;2023-11-19T01:25:33;1.75;;;1.10;;
79284;SDS011;68734;50.452;11.636;2023-11-19T01:28:00;2.78;;;1.13;;
79284;SDS011;68734;50.452;11.636;2023-11-19T01:30:27;1.27;;;0.70;;
79284;SDS011;68734;50.452;11.636;2023-11-19T01:32:53;1.00;;;0.63;;
79284;SDS011;68734;50.452;11.636;2023-11-19T01:35:18;1.15;;;0.93;;
79284;SDS011;68734;50.452;11.636;2023-11-19T01:37:44;1.95;;;0.70;;
79284;SDS011;68734;50.452;11.636;2023-11-19T01:40:09;1.23;;;0.75;;
79284;SDS011;68734;50.452;11.636;2023-11-19T01:42:49;1.13;;;0.60;;
79284;SDS011;68734;50.452;11.636;2023-11-19T01:45:21;0.70;;;0.50;;
79284;SDS011;68734;50.452;11.636;2023-11-19T01:47:51;1.73;;;0.60;;
79284;SDS011;68734;50.452;11.636;2023-11-19T01:50:17;1.02;;;0.63;;
79284;SDS011;68734;50.452;11.636;2023-11-19T01:52:42;0.70;;;0.52;;
79284;SDS011;68734;50.452;11.636;2023-11-19T01:55:08;0.90;;;0.70;;
79284;SDS011;68734;50.452;11.636;2023-11-19T01:57:37;0.68;;;0.65;;
79284;SDS011;68734;50.452;11.636;2023-11-19T02:00:03;1.67;;;0.70;;
79284;SDS011;68734;50.452;11.636;2023-11-19T02:02:29;1.98;;;0.75;;
79284;SDS011;68734;50.452;11.636;2023-11-19T02:06:20;2.92;;;0.80;;
79284;SDS011;68734;50.452;11.636;2023-11-19T02:08:49;1.33;;;0.77;;
79284;SDS011;68734;50.452;11.636;2023-11-19T02:11:17;0.50;;;0.50;;
79284;SDS011;68734;50.452;11.636;2023-11-19T02:13:42;1.13;;;0.70;;
79284;SDS011;68734;50.452;11.636;2023-11-19T02:16:09;1.27;;;0.50;;
79284;SDS011;68734;50.452;11.636;2023-11-19T02:18:36;1.75;;;0.50;;
79284;SDS011;68734;50.452;11.636;2023-11-19T02:21:04;0.70;;;0.38;;
79284;SDS011;68734;50.452;11.636;2023-11-19T02:23:30;1.27;;;0.65;;
79284;SDS011;68734;50.452;11.636;2023-11-19T02:31:30;0.85;;;0.70;;
79284;SDS011;68734;50.452;11.636;2023-11-19T02:33:56;1.42;;;0.80;;
79284;SDS011;68734;50.452;11.636;2023-11-19T02:36:25;1.10;;;0.75;;
79284;SDS011;68734;50.452;11.636;2023-11-19T02:38:50;1.13;;;0.73;;
79284;SDS011;68734;50.452;11.636;2023-11-19T02:41:16;0.95;;;0.73;;
79284;SDS011;68734;50.452;11.636;2023-11-19T02:43:43;1.58;;;0.50;;
79284;SDS011;68734;50.452;11.636;2023-11-19T02:46:09;1.42;;;0.90;;
79284;SDS011;68734;50.452;11.636;2023-11-19T02:48:34;0.30;;;0.28;;
79284;SDS011;68734;50.452;11.636;2023-11-19T02:51:03;0.30;;;0.20;;
79284;SDS011;68734;50.452;11.636;2023-11-19T02:55:28;0.22;;;0.20;;
79284;SDS011;68734;50.452;11.636;2023-11-19T02:57:56;0.20;;;0.20;;
79284;SDS011;68734;50.452;11.636;2023-11-19T03:00:24;0.45;;;0.30;;
79284;SDS011;68734;50.452;11.636;2023-11-19T03:02:53;0.30;;;0.30;;
79284;SDS011;68734;50.452;11.636;2023-11-19T03:05:25;0.65;;;0.20;;
79284;SDS011;68734;50.452;11.636;2023-11-19T03:07:51;0.43;;;0.40;;
79284;SDS011;68734;50.452;11.636;2023-11-19T03:10:17;0.43;;;0.22;;
79284;SDS011;68734;50.452;11.636;2023-11-19T03:12:43;0.17;;;0.17;;
79284;SDS011;68734;50.452;11.636;2023-11-19T03:15:09;0.40;;;0.20;;
79284;SDS011;68734;50.452;11.636;2023-11-19T03:19:14;0.50;;;0.30;;
79284;SDS011;68734;50.452;11.636;2023-11-19T03:21:41;1.85;;;0.63;;
79284;SDS011;68734;50.452;11.636;2023-11-19T03:24:07;0.38;;;0.30;;
79284;SDS011;68734;50.452;11.636;2023-11-19T03:26:34;0.30;;;0.30;;
79284;SDS011;68734;50.452;11.636;2023-11-19T03:29:00;0.75;;;0.40;;
79284;SDS011;68734;50.452;11.636;2023-11-19T03:31:26;0.68;;;0.30;;
79284;SDS011;68734;50.452;11.636;2023-11-19T03:33:51;0.75;;;0.22;;
79284;SDS011;68734;50.452;11.636;2023-11-19T03:36:17;0.63;;;0.20;;
79284;SDS011;68734;50.452;11.636;2023-11-19T03:38:42;0.52;;;0.32;;
79284;SDS011;68734;50.452;11.636;2023-11-19T03:43:10;0.20;;;0.17;;
79284;SDS011;68734;50.452;11.636;2023-11-19T03:45:36;0.10;;;0.00;;
79284;SDS011;68734;50.452;11.636;2023-11-19T03:48:01;0.28;;;0.20;;
79284;SDS011;68734;50.452;11.636;2023-11-19T03:50:27;0.10;;;0.10;;
79284;SDS011;68734;50.452;11.636;2023-11-19T03:52:54;0.20;;;0.20;;
79284;SDS011;68734;50.452;11.636;2023-11-19T03:55:20;0.22;;;0.20;;
79284;SDS011;68734;50.452;11.636;2023-11-19T03:57:45;0.17;;;0.17;;
79284;SDS011;68734;50.452;11.636;2023-11-19T04:00:12;0.45;;;0.38;;
79284;SDS011;68734;50.452;11.636;2023-11-19T04:02:39;0.13;;;0.13;;
79284;SDS011;68734;50.452;11.636;2023-11-19T04:06:53;0.10;;;0.03;;
79284;SDS011;68734;50.452;11.636;2023-11-19T04:09:19;0.50;;;0.50;;
79284;SDS011;68734;50.452;11.636;2023-11-19T04:11:46;0.20;;;0.20;;
79284;SDS011;68734;50.452;11.636;2023-11-19T04:14:15;0.55;;;0.40;;
79284;SDS011;68734;50.452;11.636;2023-11-19T04:16:43;0.20;;;0.20;;
79284;SDS011;68734;50.452;11.636;2023-11-19T04:19:10;0.30;;;0.20;;
79284;SDS011;68734;50.452;11.636;2023-11-19T04:21:35;0.10;;;0.03;;
79284;SDS011;68734;50.452;11.636;2023-11-19T04:24:01;0.15;;;0.10;;
79284;SDS011;68734;50.452;11.636;2023-11-19T04:29:21;0.22;;;0.20;;
79284;SDS011;68734;50.452;11.636;2023-11-19T04:31:46;0.60;;;0.30;;
79284;SDS011;68734;50.452;11.636;2023-11-19T04:34:12;0.30;;;0.20;;
79284;SDS011;68734;50.452;11.636;2023-11-19T04:36:37;0.20;;;0.20;;
79284;SDS011;68734;50.452;11.636;2023-11-19T04:39:03;0.20;;;0.20;;
79284;SDS011;68734;50.452;11.636;2023-11-19T04:41:48;0.15;;;0.13;;
79284;SDS011;68734;50.452;11.636;2023-11-19T04:44:15;0.10;;;0.10;;
79284;SDS011;68734;50.452;11.636;2023-11-19T04:46:41;0.25;;;0.10;;
79284;SDS011;68734;50.452;11.636;2023-11-19T04:51:49;0.47;;;0.20;;
79284;SDS011;68734;50.452;11.636;2023-11-19T04:54:16;0.70;;;0.20;;
79284;SDS011;68734;50.452;11.636;2023-11-19T04:56:44;0.10;;;0.10;;
79284;SDS011;68734;50.452;11.636;2023-11-19T04:59:11;0.13;;;0.10;;
79284;SDS011;68734;50.452;11.636;2023-11-19T05:01:36;0.13;;;0.10;;
79284;SDS011;68734;50.452;11.636;2023-11-19T05:04:01;0.57;;;0.35;;
79284;SDS011;68734;50.452;11.636;2023-11-19T05:06:28;0.40;;;0.38;;
79284;SDS011;68734;50.452;11.636;2023-11-19T05:08:59;0.60;;;0.30;;
79284;SDS011;68734;50.452;11.636;2023-11-19T05:11:34;0.80;;;0.35;;
79284;SDS011;68734;50.452;11.636;2023-11-19T05:15:06;1.35;;;0.50;;
79284;SDS011;68734;50.452;11.636;2023-11-19T05:17:32;1.20;;;0.40;;
79284;SDS011;68734;50.452;11.636;2023-11-19T05:19:58;0.65;;;0.30;;
79284;SDS011;68734;50.452;11.636;2023-11-19T05:22:23;0.95;;;0.65;;
79284;SDS011;68734;50.452;11.636;2023-11-19T05:24:49;0.60;;;0.28;;
79284;SDS011;68734;50.452;11.636;2023-11-19T05:27:15;0.90;;;0.60;;
79284;SDS011;68734;50.452;11.636;2023-11-19T05:29:40;1.08;;;0.75;;
79284;SDS011;68734;50.452;11.636;2023-11-19T05:32:06;0.90;;;0.60;;
79284;SDS011;68734;50.452;11.636;2023-11-19T05:34:32;1.75;;;1.20;;
79284;SDS011;68734;50.452;11.636;2023-11-19T05:38:49;0.63;;;0.40;;
79284;SDS011;68734;50.452;11.636;2023-11-19T05:41:14;0.47;;;0.40;;
79284;SDS011;68734;50.452;11.636;2023-11-19T05:43:40;1.00;;;0.70;;
79284;SDS011;68734;50.452;11.636;2023-11-19T05:46:06;0.95;;;0.60;;
79284;SDS011;68734;50.452;11.636;2023-11-19T05:48:32;0.80;;;0.50;;
79284;SDS011;68734;50.452;11.636;2023-11-19T05:50:58;1.08;;;0.50;;
79284;SDS011;68734;50.452;11.636;2023-11-19T05:53:23;1.10;;;0.50;;
79284;SDS011;68734;50.452;11.636;2023-11-19T05:55:49;0.45;;;0.22;;
79284;SDS011;68734;50.452;11.636;2023-11-19T06:00:03;0.38;;;0.30;;
79284;SDS011;68734;50.452;11.636;2023-11-19T06:02:38;0.52;;;0.28;;
79284;SDS011;68734;50.452;11.636;2023-11-19T06:05:04;0.13;;;0.13;;
79284;SDS011;68734;50.452;11.636;2023-11-19T06:07:31;0.35;;;0.22;;
79284;SDS011;68734;50.452;11.636;2023-11-19T06:09:57;0.50;;;0.40;;
79284;SDS011;68734;50.452;11.636;2023-11-19T06:12:22;0.20;;;0.20;;
79284;SDS011;68734;50.452;11.636;2023-11-19T06:14:48;1.00;;;0.50;;
79284;SDS011;68734;50.452;11.636;2023-11-19T06:17:13;0.32;;;0.22;;
79284;SDS011;68734;50.452;11.636;2023-11-19T06:19:40;0.30;;;0.20;;
79284;SDS011;68734;50.452;11.636;2023-11-19T06:23:27;0.77;;;0.60;;
79284;SDS011;68734;50.452;11.636;2023-11-19T06:25:53;0.60;;;0.47;;
79284;SDS011;68734;50.452;11.636;2023-11-19T06:28:18;0.50;;;0.40;;
79284;SDS011;68734;50.452;11.636;2023-11-19T06:30:46;0.20;;;0.10;;
79284;SDS011;68734;50.452;11.636;2023-11-19T06:33:15;0.57;;;0.40;;
79284;SDS011;68734;50.452;11.636;2023-11-19T06:35:40;1.00;;;0.40;;
79284;SDS011;68734;50.452;11.636;2023-11-19T06:38:06;0.38;;;0.20;;
79284;SDS011;68734;50.452;11.636;2023-11-19T06:40:34;0.40;;;0.22;;
79284;SDS011;68734;50.452;11.636;2023-11-19T06:43:00;0.38;;;0.30;;
79284;SDS011;68734;50.452;11.636;2023-11-19T06:46:14;0.22;;;0.17;;
79284;SDS011;68734;50.452;11.636;2023-11-19T06:48:41;0.25;;;0.10;;
79284;SDS011;68734;50.452;11.636;2023-11-19T06:51:09;0.55;;;0.28;;
79284;SDS011;68734;50.452;11.636;2023-11-19T06:53:34;0.68;;;0.40;;
79284;SDS011;68734;50.452;11.636;2023-11-19T06:56:02;1.25;;;0.50;;
79284;SDS011;68734;50.452;11.636;2023-11-19T06:58:31;0.95;;;0.50;;
79284;SDS011;68734;50.452;11.636;2023-11-19T07:01:01;1.33;;;0.70;;
79284;SDS011;68734;50.452;11.636;2023-11-19T07:03:26;1.60;;;0.80;;
79284;SDS011;68734;50.452;11.636;2023-11-19T07:07:40;2.42;;;0.85;;
79284;SDS011;68734;50.452;11.636;2023-11-19T07:10:09;0.90;;;0.50;;
79284;SDS011;68734;50.452;11.636;2023-11-19T07:12:37;1.33;;;0.95;;
79284;SDS011;68734;50.452;11.636;2023-11-19T07:15:03;0.60;;;0.60;;
79284;SDS011;68734;50.452;11.636;2023-11-19T07:17:30;2.10;;;0.80;;
79284;SDS011;68734;50.452;11.636;2023-11-19T07:19:56;2.17;;;0.93;;
79284;SDS011;68734;50.452;11.636;2023-11-19T07:22:24;1.00;;;0.80;;
79284;SDS011;68734;50.452;11.636;2023-11-19T07:24:50;1.77;;;1.20;;
79284;SDS011;68734;50.452;11.636;2023-11-19T07:30:03;2.38;;;1.20;;
79284;SDS011;68734;50.452;11.636;2023-11-19T07:32:29;1.58;;;1.10;;
79284;SDS011;68734;50.452;11.636;2023-11-19T07:34:54;2.08;;;1.20;;
79284;SDS011;68734;50.452;11.636;2023-11-19T07:37:22;1.15;;;0.80;;
79284;SDS011;68734;50.452;11.636;2023-11-19T07:39:47;1.45;;;0.85;;
79284;SDS011;68734;50.452;11.636;2023-11-19T07:42:12;1.08;;;0.77;;
79284;SDS011;68734;50.452;11.636;2023-11-19T07:44:40;2.08;;;1.00;;
79284;SDS011;68734;50.452;11.636;2023-11-19T07:47:06;1.38;;;0.98;;
79284;SDS011;68734;50.452;11.636;2023-11-19T07:49:32;1.40;;;0.80;;
79284;SDS011;68734;50.452;11.636;2023-11-19T07:52:46;1.50;;;0.90;;
79284;SDS011;68734;50.452;11.636;2023-11-19T07:55:12;1.67;;;1.08;;
79284;SDS011;68734;50.452;11.636;2023-11-19T07:57:37;1.38;;;0.90;;
79284;SDS011;68734;50.452;11.636;2023-11-19T08:00:05;0.93;;;0.82;;
79284;SDS011;68734;50.452;11.636;2023-11-19T08:02:32;1.20;;;0.70;;
79284;SDS011;68734;50.452;11.636;2023-11-19T08:04:58;0.98;;;0.80;;
79284;SDS011;68734;50.452;11.636;2023-11-19T08:07:28;0.82;;;0.70;;
79284;SDS011;68734;50.452;11.636;2023-11-19T08:09:53;1.05;;;0.80;;
79284;SDS011;68734;50.452;11.636;2023-11-19T08:12:19;1.00;;;0.50;;
79284;SDS011;68734;50.452;11.636;2023-11-19T08:17:27;0.57;;;0.50;;
79284;SDS011;68734;50.452;11.636;2023-11-19T08:19:53;0.93;;;0.50;;
79284;SDS011;68734;50.452;11.636;2023-11-19T08:22:18;1.20;;;0.70;;
79284;SDS011;68734;50.452;11.636;2023-11-19T08:24:43;0.95;;;0.70;;
79284;SDS011;68734;50.452;11.636;2023-11-19T08:27:11;1.30;;;0.80;;
79284;SDS011;68734;50.452;11.636;2023-11-19T08:29:37;1.10;;;0.43;;
79284;SDS011;68734;50.452;11.636;2023-11-19T08:32:02;1.83;;;1.15;;
79284;SDS011;68734;50.452;11.636;2023-11-19T08:34:28;1.63;;;1.23;;
79284;SDS011;68734;50.452;11.636;2023-11-19T08:39:42;2.17;;;1.20;;
79284;SDS011;68734;50.452;11.636;2023-11-19T08:42:11;1.65;;;1.00;;
79284;SDS011;68734;50.452;11.636;2023-11-19T08:44:37;2.15;;;1.50;;
79284;SDS011;68734;50.452;11.636;2023-11-19T08:47:02;2.38;;;1.60;;
79284;SDS011;68734;50.452;11.636;2023-11-19T08:49:30;1.85;;;1.42;;
79284;SDS011;68734;50.452;11.636;2023-11-19T08:51:56;2.78;;;1.92;;
79284;SDS011;68734;50.452;11.636;2023-11-19T08:54:21;2.53;;;1.48;;
79284;SDS011;68734;50.452;11.636;2023-11-19T08:56:48;1.83;;;1.30;;
79284;SDS011;68734;50.452;11.636;2023-11-19T08:59:15;1.80;;;1.40;;
79284;SDS011;68734;50.452;11.636;2023-11-19T09:01:41;1.40;;;1.08;;
79284;SDS011;68734;50.452;11.636;2023-11-19T09:06:40;1.58;;;1.23;;
79284;SDS011;68734;50.452;11.636;2023-11-19T09:09:06;1.60;;;0.90;;
79284;SDS011;68734;50.452;11.636;2023-11-19T09:11:31;1.30;;;1.10;;
79284;SDS011;68734;50.452;11.636;2023-11-19T09:13:59;1.45;;;0.98;;
79284;SDS011;68734;50.452;11.636;2023-11-19T09:16:24;2.05;;;0.95;;
79284;SDS011;68734;50.452;11.636;2023-11-19T09:18:50;6.78;;;4.20;;
79284;SDS011;68734;50.452;11.636;2023-11-19T09:21:16;10.38;;;5.82;;
79284;SDS011;68734;50.452;11.636;2023-11-19T09:23:41;9.23;;;5.15;;
79284;SDS011;68734;50.452;11.636;2023-11-19T09:26:08;2.40;;;1.15;;
79284;SDS011;68734;50.452;11.636;2023-11-19T09:28:35;6.85;;;2.13;;
79284;SDS011;68734;50.452;11.636;2023-11-19T09:32:44;11.15;;;6.07;;
79284;SDS011;68734;50.452;11.636;2023-11-19T09:35:12;2.45;;;1.40;;
79284;SDS011;68734;50.452;11.636;2023-11-19T09:37:39;2.83;;;1.67;;
79284;SDS011;68734;50.452;11.636;2023-11-19T09:40:05;6.15;;;2.58;;
79284;SDS011;68734;50.452;11.636;2023-11-19T09:42:36;2.58;;;1.50;;
79284;SDS011;68734;50.452;11.636;2023-11-19T09:45:15;3.47;;;1.50;;
79284;SDS011;68734;50.452;11.636;2023-11-19T09:47:45;3.00;;;1.80;;
79284;SDS011;68734;50.452;11.636;2023-11-19T09:50:15;3.17;;;1.05;;
79284;SDS011;68734;50.452;11.636;2023-11-19T09:52:48;2.25;;;1.40;;
79284;SDS011;68734;50.452;11.636;2023-11-19T09:59:11;1.70;;;1.02;;
79284;SDS011;68734;50.452;11.636;2023-11-19T10:01:37;2.78;;;1.30;;
79284;SDS011;68734;50.452;11.636;2023-11-19T10:04:03;2.47;;;1.52;;
79284;SDS011;68734;50.452;11.636;2023-11-19T10:06:31;3.08;;;1.55;;
79284;SDS011;68734;50.452;11.636;2023-11-19T10:08:56;2.47;;;1.48;;
79284;SDS011;68734;50.452;11.636;2023-11-19T10:11:24;1.60;;;1.15;;
79284;SDS011;68734;50.452;11.636;2023-11-19T10:13:51;7.75;;;1.30;;
79284;SDS011;68734;50.452;11.636;2023-11-19T10:16:18;2.67;;;1.45;;
79284;SDS011;68734;50.452;11.636;2023-11-19T10:22:37;5.80;;;2.10;;
79284;SDS011;68734;50.452;11.636;2023-11-19T10:25:03;1.63;;;1.10;;
79284;SDS011;68734;50.452;11.636;2023-11-19T10:27:29;1.85;;;0.93;;
79284;SDS011;68734;50.452;11.636;2023-11-19T10:29:57;2.10;;;1.40;;
79284;SDS011;68734;50.452;11.636;2023-11-19T10:32:24;1.70;;;1.35;;
79284;SDS011;68734;50.452;11.636;2023-11-19T10:34:50;5.45;;;1.45;;
79284;SDS011;68734;50.452;11.636;2023-11-19T10:37:28;1.83;;;0.93;;
79284;SDS011;68734;50.452;11.636;2023-11-19T10:39:57;1.55;;;1.20;;
79284;SDS011;68734;50.452;11.636;2023-11-19T10:47:28;3.60;;;2.03;;
79284;SDS011;68734;50.452;11.636;2023-11-19T10:49:55;4.32;;;1.25;;
79284;SDS011;68734;50.452;11.636;2023-11-19T10:52:21;3.83;;;1.63;;
79284;SDS011;68734;50.452;11.636;2023-11-19T10:54:51;1.05;;;0.70;;
79284;SDS011;68734;50.452;11.636;2023-11-19T10:57:20;5.18;;;0.95;;
79284;SDS011;68734;50.452;11.636;2023-11-19T10:59:47;1.42;;;0.82;;
79284;SDS011;68734;50.452;11.636;2023-11-19T11:02:19;3.45;;;1.27;;
79284;SDS011;68734;50.452;11.636;2023-11-19T11:04:49;1.85;;;0.88;;
79284;SDS011;68734;50.452;11.636;2023-11-19T11:11:04;1.60;;;0.88;;
79284;SDS011;68734;50.452;11.636;2023-11-19T11:13:31;2.20;;;0.90;;
79284;SDS011;68734;50.452;11.636;2023-11-19T11:16:00;3.83;;;0.80;;
79284;SDS011;68734;50.452;11.636;2023-11-19T11:18:29;5.80;;;1.15;;
79284;SDS011;68734;50.452;11.636;2023-11-19T11:21:02;6.25;;;1.00;;
79284;SDS011;68734;50.452;11.636;2023-11-19T11:29:16;2.08;;;0.75;;
79284;SDS011;68734;50.452;11.636;2023-11-19T11:35:55;3.90;;;1.17;;
79284;SDS011;68734;50.452;11.636;2023-11-19T11:38:37;6.57;;;1.52;;
79284;SDS011;68734;50.452;11.636;2023-11-19T11:41:22;3.72;;;1.17;;
79284;SDS011;68734;50.452;11.636;2023-11-19T11:43:49;3.90;;;1.00;;
79284;SDS011;68734;50.452;11.636;2023-11-19T11:49:05;3.42;;;1.45;;
79284;SDS011;68734;50.452;11.636;2023-11-19T11:59:36;3.88;;;1.13;;
79284;SDS011;68734;50.452;11.636;2023-11-19T12:02:11;3.28;;;1.25;;
79284;SDS011;68734;50.452;11.636;2023-11-19T12:04:39;6.15;;;1.38;;
79284;SDS011;68734;50.452;11.636;2023-11-19T12:07:12;3.95;;;1.33;;
79284;SDS011;68734;50.452;11.636;2023-11-19T12:09:45;3.30;;;1.17;;
79284;SDS011;68734;50.452;11.636;2023-11-19T12:22:42;3.13;;;1.23;;
79284;SDS011;68734;50.452;11.636;2023-11-19T12:25:12;3.63;;;1.17;;
79284;SDS011;68734;50.452;11.636;2023-11-19T12:27:41;3.13;;;1.50;;
79284;SDS011;68734;50.452;11.636;2023-11-19T12:30:10;3.65;;;0.73;;
79284;SDS011;68734;50.452;11.636;2023-11-19T12:32:39;7.80;;;1.38;;
79284;SDS011;68734;50.452;11.636;2023-11-19T12:35:09;6.25;;;1.17;;
79284;SDS011;68734;50.452;11.636;2023-11-19T12:37:44;7.22;;;1.67;;
79284;SDS011;68734;50.452;11.636;2023-11-19T12:42:35;5.18;;;2.30;;
79284;SDS011;68734;50.452;11.636;2023-11-19T12:45:04;2.95;;;0.82;;
79284;SDS011;68734;50.452;11.636;2023-11-19T12:47:33;3.00;;;0.80;;
79284;SDS011;68734;50.452;11.636;2023-11-19T12:49:58;4.53;;;1.20;;
79284;SDS011;68734;50.452;11.636;2023-11-19T12:52:24;5.38;;;1.15;;
79284;SDS011;68734;50.452;11.636;2023-11-19T12:54:50;5.28;;;1.73;;
79284;SDS011;68734;50.452;11.636;2023-11-19T12:57:16;8.48;;;2.25;;
79284;SDS011;68734;50.452;11.636;2023-11-19T12:59:54;6.38;;;1.90;;
79284;SDS011;68734;50.452;11.636;2023-11-19T13:02:21;3.50;;;1.02;;
79284;SDS011;68734;50.452;11.636;2023-11-19T13:07:27;4.38;;;0.88;;
79284;SDS011;68734;50.452;11.636;2023-11-19T13:10:00;4.45;;;1.17;;
79284;SDS011;68734;50.452;11.636;2023-11-19T13:12:26;5.10;;;1.27;;
79284;SDS011;68734;50.452;11.636;2023-11-19T13:14:52;7.45;;;1.50;;
79284;SDS011;68734;50.452;11.636;2023-11-19T13:17:18;4.35;;;1.15;;
79284;SDS011;68734;50.452;11.636;2023-11-19T13:19:46;6.30;;;1.17;;
79284;SDS011;68734;50.452;11.636;2023-11-19T13:22:12;3.20;;;1.02;;
79284;SDS011;68734;50.452;11.636;2023-11-19T13:24:37;5.57;;;1.50;;
79284;SDS011;68734;50.452;11.636;2023-11-19T13:27:05;3.42;;;1.08;;
79284;SDS011;68734;50.452;11.636;2023-11-19T13:31:19;4.68;;;1.13;;
79284;SDS011;68734;50.452;11.636;2023-11-19T13:33:45;7.63;;;2.30;;
79284;SDS011;68734;50.452;11.636;2023-11-19T13:36:10;8.70;;;1.30;;
79284;SDS011;68734;50.452;11.636;2023-11-19T13:38:36;7.55;;;3.35;;
79284;SDS011;68734;50.452;11.636;2023-11-19T13:41:02;4.85;;;1.38;;
79284;SDS011;68734;50.452;11.636;2023-11-19T13:43:32;3.63;;;1.25;;
79284;SDS011;68734;50.452;11.636;2023-11-19T13:46:00;7.97;;;2.35;;
79284;SDS011;68734;50.452;11.636;2023-11-19T13:48:26;3.10;;;1.98;;
79284;SDS011;68734;50.452;11.636;2023-11-19T13:50:57;6.03;;;1.60;;
79284;SDS011;68734;50.452;11.636;2023-11-19T13:57:25;4.17;;;1.97;;
79284;SDS011;68734;50.452;11.636;2023-11-19T13:59:50;2.55;;;1.50;;
79284;SDS011;68734;50.452;11.636;2023-11-19T14:02:16;4.07;;;1.55;;
79284;SDS011;68734;50.452;11.636;2023-11-19T14:04:42;4.15;;;1.00;;
79284;SDS011;68734;50.452;11.636;2023-11-19T14:07:08;8.30;;;1.13;;
79284;SDS011;68734;50.452;11.636;2023-11-19T14:09:33;6.10;;;1.50;;
79284;SDS011;68734;50.452;11.636;2023-11-19T14:11:58;3.28;;;1.02;;
79284;SDS011;68734;50.452;11.636;2023-11-19T14:14:24;10.07;;;1.23;;
79284;SDS011;68734;50.452;11.636;2023-11-19T14:22:04;5.03;;;1.05;;
79284;SDS011;68734;50.452;11.636;2023-11-19T14:24:31;6.57;;;1.20;;
79284;SDS011;68734;50.452;11.636;2023-11-19T14:26:56;4.80;;;1.50;;
79284;SDS011;68734;50.452;11.636;2023-11-19T14:29:24;6.40;;;1.50;;
79284;SDS011;68734;50.452;11.636;2023-11-19T14:31:51;5.05;;;1.17;;
79284;SDS011;68734;50.452;11.636;2023-11-19T14:34:17;12.82;;;1.65;;
79284;SDS011;68734;50.452;11.636;2023-11-19T14:36:44;7.57;;;1.63;;
79284;SDS011;68734;50.452;11.636;2023-11-19T14:44:04;4.60;;;1.33;;
79284;SDS011;68734;50.452;11.636;2023-11-19T14:46:30;4.75;;;1.35;;
79284;SDS011;68734;50.452;11.636;2023-11-19T14:48:56;4.50;;;1.20;;
79284;SDS011;68734;50.452;11.636;2023-11-19T14:51:21;6.03;;;1.25;;
79284;SDS011;68734;50.452;11.636;2023-11-19T14:53:47;6.00;;;1.55;;
79284;SDS011;68734;50.452;11.636;2023-11-19T14:56:13;10.77;;;2.22;;
79284;SDS011;68734;50.452;11.636;2023-11-19T14:58:38;9.40;;;1.42;;
79284;SDS011;68734;50.452;11.636;2023-11-19T15:01:04;5.25;;;1.05;;
79284;SDS011;68734;50.452;11.636;2023-11-19T15:05:47;5.47;;;1.42;;
79284;SDS011;68734;50.452;11.636;2023-11-19T15:08:16;6.43;;;1.42;;
79284;SDS011;68734;50.452;11.636;2023-11-19T15:10:41;3.72;;;1.30;;
79284;SDS011;68734;50.452;11.636;2023-11-19T15:13:09;4.68;;;1.17;;
79284;SDS011;68734;50.452;11.636;2023-11-19T15:15:35;7.25;;;1.67;;
79284;SDS011;68734;50.452;11.636;2023-11-19T15:18:00;6.45;;;1.55;;
79284;SDS011;68734;50.452;11.636;2023-11-19T15:20:26;9.77;;;2.03;;
79284;SDS011;68734;50.452;11.636;2023-11-19T15:22:55;10.02;;;1.42;;
79284;SDS011;68734;50.452;11.636;2023-11-19T15:25:21;11.15;;;3.85;;
79284;SDS011;68734;50.452;11.636;2023-11-19T15:27:47;6.78;;;2.33;;
79284;SDS011;68734;50.452;11.636;2023-11-19T15:31:05;6.65;;;2.97;;
79284;SDS011;68734;50.452;11.636;2023-11-19T15:33:30;11.73;;;3.08;;
79284;SDS011;68734;50.452;11.636;2023-11-19T15:35:56;11.38;;;4.32;;
79284;SDS011;68734;50.452;11.636;2023-11-19T15:38:21;9.63;;;4.13;;
79284;SDS011;68734;50.452;11.636;2023-11-19T15:40:49;8.30;;;3.28;;
79284;SDS011;68734;50.452;11.636;2023-11-19T15:43:14;10.60;;;2.95;;
79284;SDS011;68734;50.452;11.636;2023-11-19T15:45:40;11.23;;;2.70;;
79284;SDS011;68734;50.452;11.636;2023-11-19T15:48:05;14.50;;;4.30;;
79284;SDS011;68734;50.452;11.636;2023-11-19T15:50:31;14.52;;;3.60;;
79284;SDS011;68734;50.452;11.636;2023-11-19T15:55:06;5.25;;;1.75;;
79284;SDS011;68734;50.452;11.636;2023-11-19T15:57:31;9.70;;;4.63;;
79284;SDS011;68734;50.452;11.636;2023-11-19T15:59:57;15.65;;;3.70;;
79284;SDS011;68734;50.452;11.636;2023-11-19T16:02:22;11.23;;;4.78;;
79284;SDS011;68734;50.452;11.636;2023-11-19T16:04:50;9.98;;;4.22;;
79284;SDS011;68734;50.452;11.636;2023-11-19T16:07:16;11.82;;;3.58;;
79284;SDS011;68734;50.452;11.636;2023-11-19T16:09:42;8.52;;;2.53;;
79284;SDS011;68734;50.452;11.636;2023-11-19T16:12:10;6.70;;;2.38;;
79284;SDS011;68734;50.452;11.636;2023-11-19T16:14:37;11.57;;;3.08;;
79284;SDS011;68734;50.452;11.636;2023-11-19T16:19:22;13.50;;;2.65;;
79284;SDS011;68734;50.452;11.636;2023-11-19T16:21:51;10.20;;;1.75;;
79284;SDS011;68734;50.452;11.636;2023-11-19T16:24:17;11.15;;;2.42;;
79284;SDS011;68734;50.452;11.636;2023-11-19T16:26:42;6.32;;;1.50;;
79284;SDS011;68734;50.452;11.636;2023-11-19T16:29:08;10.88;;;2.15;;
79284;SDS011;68734;50.452;11.636;2023-11-19T16:31:33;12.30;;;2.55;;
79284;SDS011;68734;50.452;11.636;2023-11-19T16:33:59;8.40;;;1.88;;
79284;SDS011;68734;50.452;11.636;2023-11-19T16:36:25;5.15;;;1.67;;
79284;SDS011;68734;50.452;11.636;2023-11-19T16:38:51;11.18;;;3.17;;